Aérodrome :
LOGIN :

S'inscrire | Disclaimer

   EN    FR    IT 

 










Légende :    VFR   VFR Marginal   IFR   IFR Intensif   IFR Très Intensif
Visi : 
Plafond : 
>= 8 km
>= 3000ft
5 à 8 km
1000 à 3000 ft
1500m à 5 km
500 à 1000 ft
800 à 1500m
200 à 500 ft
< 800m
< 200 ft
Symboles :   Orages  Brouillard  Fortes neiges  Fortes précipitations  Vent > 20 kt
SIGMETs :   Divers  Orages  Givrage  Turbulence  Onde Orograph.  Cendres Volcan.






- Altitude de l'aérodrome : 856 ft
- Code IATA : VGO


LEVX - Vigo Peinador

DERNIER METAR :
  • 152300Z 19007KT 140V230 3000 1400S -RA BCFG BKN040 09/08 Q1003 NOSIG

METARs EXPIRÉS :
  • 152230Z 19006KT 3000 0900S BCFG FEW004 09/08 Q1003 RERA NOSIG
  • 152200Z 18006KT 140V220 0200 R19/P2000 R01/0450D -RA FG VV001 08/08 Q1004 NOSIG
  • 152130Z 18005KT 100V220 0450 R19/P2000 R01/1100U -RA FG VV001 09/08 Q1004 NOSIG
  • 152100Z 18006KT 080V240 0200 R19/P2000 R01/0300N -RA FG VV001 08/08 Q1005 NOSIG
  • 152030Z 18006KT 130V220 0100 R19/P2000 R01/0400D FG VV001 08/08 Q1005 NOSIG
  • 152019Z 17007KT 120V220 0200 R19/P2000 R01/0700D FG VV001 09/08 Q1005 TEMPO 3000 BR
  • 152009Z 19008KT 140V210 2000 0500S BCFG SCT009 SCT013 09/08 Q1005 TEMPO 3000 BR

TAF TAF LEVX
Valide du 15 à 18h jusqu'au 16 à 18h UTC


151700Z 1518/1618 VRB05KT 5000 -RA SCT010 BKN030 TX10/1518Z TN05/1618Z
TEMPO 1518/1618 1500 -RA BR BKN010
TEMPO 1518/1520 0800 -RA BCFG BKN003 BKN010
TEMPO 1520/1523 17010KT
PROB40
TEMPO 1605/1612 0800 RA BCFG BKN003 BKN014
TEMPO 1611/1615 36010KT



MET'MAP, la Météo Aéronautique d'un coup d'oeil ! - Copyright ORBIFLY Décembre 2007 - Disclaimer

ORBIFLY MET'MAP TEAM :

Programmation & Développement : Alexandra Zaïnal
Sur une idée originale de : Baudouin d'Aumeries
Assistance à la programmation : Marc-Olivier Méhu
Soutien technique & logistique : Manuel Goepfert

Contact : metmap@orbifly.com




SOURCES & CREDITS :

   NOAA